Time;durP1;ratioP1;P1;durP2;ratioP2;P2;SDS_P1;SDS_P2;PMS_P1;PMS_P2;Temp;Humidity;BMP_temperature;BMP_pressure;BME280_temperature;BME280_humidity;BME280_pressure;Samples;Min_cycle;Max_cycle;Signal;HPM_P1;HPM_P2
2024/04/04 05:55:03;;;;;;;21.13;2.20;;;;;;;9.97;93.87;96171.94;2086301;28;20553;-64
2024/04/04 06:37:59;;;;;;;10.32;1.50;;;;;;;10.59;90.84;96186.28;2081427;28;20558;-65
2024/04/04 06:41:07;;;;;;;14.57;1.55;;;;;;;10.88;88.70;96192.56;2101072;27;20570;-64
2024/04/04 06:44:14;;;;;;;16.05;1.60;;;;;;;11.03;88.39;96177.84;2085252;28;20568;-65
2024/04/04 06:45:15;;;;;;;7.90;1.50;;;;;;;11.23;87.52;96187.22;2085107;28;20219;-65
2024/04/04 06:46:15;;;;;;;14.07;1.93;;;;;;;11.33;86.69;96168.44;2075295;28;20204;-65
2024/04/04 06:47:16;;;;;;;9.07;2.07;;;;;;;11.51;86.26;96180.47;2073032;28;20217;-65
2024/04/04 06:49:51;;;;;;;11.18;1.75;;;;;;;11.73;85.61;96197.56;2115325;27;21094;-65
2024/04/04 06:50:51;;;;;;;9.30;1.83;;;;;;;11.86;84.80;96200.31;2109536;28;20554;-66
2024/04/04 06:51:53;;;;;;;9.20;1.67;;;;;;;12.05;84.26;96193.16;2097403;28;20565;-66
2024/04/04 06:52:54;;;;;;;19.25;2.25;;;;;;;11.99;83.71;96188.25;2097668;28;20811;-66
2024/04/04 06:53:55;;;;;;;13.88;2.05;;;;;;;11.90;83.51;96197.44;2099379;28;20192;-65
2024/04/04 06:54:55;;;;;;;11.83;2.33;;;;;;;12.00;83.25;96189.09;2096117;28;20275;-66
2024/04/04 06:55:55;;;;;;;14.83;2.40;;;;;;;12.20;82.79;96219.34;2105341;28;20197;-66
2024/04/04 06:56:57;;;;;;;12.37;2.83;;;;;;;12.40;82.34;96190.25;2096933;28;20218;-65
2024/04/04 06:57:57;;;;;;;6.97;1.75;;;;;;;12.52;81.81;96188.66;2095343;28;20213;-65
2024/04/04 06:58:58;;;;;;;11.87;2.20;;;;;;;12.52;81.78;96191.28;2106686;28;20206;-65
2024/04/04 06:59:58;;;;;;;9.93;1.87;;;;;;;12.40;82.05;96192.00;2104862;28;20645;-65
2024/04/04 07:00:59;;;;;;;11.63;1.63;;;;;;;12.46;81.81;96206.53;2105936;28;20226;-65
2024/04/04 07:02:00;;;;;;;7.75;1.35;;;;;;;12.41;81.55;96191.91;2101420;28;20268;-66
2024/04/04 07:03:01;;;;;;;12.57;2.40;;;;;;;12.65;80.80;96208.91;2102180;28;20680;-66
2024/04/04 07:04:03;;;;;;;9.30;1.60;;;;;;;12.77;79.79;96195.03;2101970;28;20640;-66
2024/04/04 07:05:08;;;;;;;9.65;1.63;;;;;;;12.92;79.44;96205.53;2095959;28;20440;-67
2024/04/04 07:06:09;;;;;;;9.68;2.00;;;;;;;12.93;79.41;96202.00;2098946;28;20215;-66
2024/04/04 07:07:10;;;;;;;7.60;1.60;;;;;;;13.04;79.32;96205.63;2090931;28;20219;-66
2024/04/04 07:08:10;;;;;;;7.70;1.67;;;;;;;12.95;79.01;96200.97;2100247;28;20474;-66
2024/04/04 07:09:11;;;;;;;13.20;2.20;;;;;;;12.77;79.80;96220.41;2099893;28;20222;-66
2024/04/04 07:10:12;;;;;;;12.80;1.60;;;;;;;12.56;80.76;96216.34;2098029;28;20207;-66
2024/04/04 07:11:12;;;;;;;11.90;1.90;;;;;;;12.35;81.54;96215.00;2103221;28;20200;-65
2024/04/04 07:12:13;;;;;;;10.43;1.77;;;;;;;12.08;82.43;96223.53;2099904;28;20463;-66
2024/04/04 07:13:15;;;;;;;13.30;2.27;;;;;;;11.90;83.41;96217.53;2095171;28;20211;-65
2024/04/04 07:14:15;;;;;;;7.65;1.30;;;;;;;11.74;84.73;96239.34;2096697;28;20672;-66
2024/04/04 09:27:39;;;;;;;16.30;2.45;;;;;;;10.08;100.00;96314.03;2101220;27;20569;-63
2024/04/04 09:30:18;;;;;;;15.60;2.85;;;;;;;10.21;100.00;96307.31;2100176;27;20575;-64
2024/04/04 09:31:22;;;;;;;11.93;1.92;;;;;;;10.25;100.00;96311.44;2089003;28;20197;-65
2024/04/04 09:34:04;;;;;;;16.52;2.17;;;;;;;10.33;100.00;96315.47;2091296;27;20579;-65
2024/04/04 09:36:52;;;;;;;12.63;1.80;;;;;;;10.32;100.00;96314.59;2082439;28;21024;-64
2024/04/04 09:39:48;;;;;;;9.05;1.50;;;;;;;10.30;100.00;96309.47;2092711;27;21034;-66
2024/04/04 09:42:57;;;;;;;16.63;2.55;;;;;;;10.33;100.00;96318.06;2083398;28;20561;-65
2024/04/04 09:46:07;;;;;;;9.05;2.03;;;;;;;10.35;100.00;96316.22;2116680;27;20562;-66
2024/04/04 09:49:16;;;;;;;10.30;1.65;;;;;;;10.38;100.00;96306.50;2091010;28;21296;-65
2024/04/04 09:52:08;;;;;;;13.88;2.17;;;;;;;10.47;100.00;96304.38;2084589;28;20575;-64
2024/04/04 09:55:12;;;;;;;6.72;1.85;;;;;;;10.56;100.00;96309.13;2099506;27;20567;-64
2024/04/04 09:56:14;;;;;;;13.40;1.80;;;;;;;10.58;100.00;96297.69;2097023;28;20482;-65
2024/04/04 09:58:46;;;;;;;12.48;1.70;;;;;;;10.66;100.00;96293.84;2085815;28;20575;-64
2024/04/04 09:59:47;;;;;;;15.73;2.67;;;;;;;10.75;100.00;96304.69;2091179;28;20191;-65
2024/04/04 10:00:48;;;;;;;8.43;2.33;;;;;;;10.75;100.00;96302.06;2078328;28;20443;-65
2024/04/04 10:01:49;;;;;;;9.77;1.73;;;;;;;10.84;100.00;96308.56;2069502;28;20245;-66
2024/04/04 10:02:57;;;;;;;46.67;18.67;;;;;;;10.94;100.00;96298.50;2066657;28;20932;-65
2024/04/04 10:03:59;;;;;;;22.17;8.55;;;;;;;11.07;100.00;96304.78;2067184;28;20324;-65
2024/04/04 10:04:59;;;;;;;20.23;3.95;;;;;;;11.02;100.00;96298.97;2066205;28;20227;-65
2024/04/04 10:06:00;;;;;;;10.70;2.20;;;;;;;11.04;100.00;96306.72;2064870;28;20298;-65
2024/04/04 10:07:01;;;;;;;10.43;2.20;;;;;;;11.10;100.00;96306.41;2070229;28;20733;-65
2024/04/04 10:08:09;;;;;;;9.18;2.85;;;;;;;11.07;100.00;96302.19;2074638;28;20207;-65
2024/04/04 10:09:14;;;;;;;8.95;1.90;;;;;;;11.08;100.00;96305.63;2076827;28;20206;-65
2024/04/04 10:19:32;;;;;;;12.23;3.30;;;;;;;10.88;100.00;96309.25;2084054;28;20545;-64
2024/04/04 10:22:14;;;;;;;12.77;1.60;;;;;;;10.88;100.00;96302.28;2074524;28;20576;-64
2024/04/04 10:23:16;;;;;;;6.95;1.50;;;;;;;10.91;100.00;96320.41;2078066;28;20257;-65
2024/04/04 10:25:40;;;;;;;12.00;3.72;;;;;;;10.98;100.00;96310.47;2083904;28;20575;-64
2024/04/04 10:26:40;;;;;;;28.85;5.22;;;;;;;11.06;100.00;96313.56;2070530;28;20199;-66
2024/04/04 10:27:41;;;;;;;7.20;2.40;;;;;;;11.02;100.00;96305.94;2057455;28;20207;-65
2024/04/04 10:28:46;;;;;;;16.63;2.17;;;;;;;11.07;100.00;96306.53;2058342;28;20544;-65
2024/04/04 10:29:46;;;;;;;7.55;1.67;;;;;;;11.04;100.00;96307.56;2066042;28;20214;-65
2024/04/04 10:30:49;;;;;;;6.60;1.80;;;;;;;11.15;100.00;96311.38;2060020;28;20220;-65
2024/04/04 10:31:50;;;;;;;11.07;1.42;;;;;;;11.11;100.00;96310.72;2056464;28;20586;-65
2024/04/04 10:32:51;;;;;;;8.10;2.03;;;;;;;11.11;99.76;96318.56;2055491;28;20251;-63
2024/04/04 10:34:04;;;;;;;9.93;1.87;;;;;;;11.15;100.00;96306.16;2065592;28;20536;-64
2024/04/04 10:35:05;;;;;;;7.22;1.85;;;;;;;11.13;99.40;96311.47;2063338;28;20694;-64
2024/04/04 10:36:07;;;;;;;9.30;1.60;;;;;;;11.18;100.00;96303.38;2061128;28;20198;-65
2024/04/04 10:37:14;;;;;;;7.97;1.50;;;;;;;11.17;100.00;96297.28;2057447;28;20293;-65
2024/04/04 10:38:15;;;;;;;8.07;1.88;;;;;;;11.27;100.00;96316.81;2058304;28;20224;-65
2024/04/04 10:39:21;;;;;;;15.20;2.50;;;;;;;11.26;100.00;96304.66;2067265;28;20786;-65
2024/04/04 10:40:24;;;;;;;7.43;1.70;;;;;;;11.24;99.68;96295.22;2068795;28;20510;-65
2024/04/04 10:41:25;;;;;;;6.13;1.50;;;;;;;11.24;99.02;96311.75;2062610;28;20291;-65
2024/04/04 10:42:26;;;;;;;7.23;1.50;;;;;;;11.30;99.53;96304.50;2066235;28;20807;-65
2024/04/04 10:43:26;;;;;;;11.57;2.03;;;;;;;11.27;99.38;96297.66;2058168;28;20274;-65
2024/04/04 10:44:27;;;;;;;16.87;2.13;;;;;;;11.26;99.59;96309.03;2057477;28;20222;-64
2024/04/04 10:46:39;;;;;;;10.70;2.20;;;;;;;11.10;98.56;96296.78;2084403;28;20553;-62
2024/04/04 10:48:50;;;;;;;8.10;1.85;;;;;;;11.07;100.00;96294.34;2084775;28;20606;-64
2024/04/04 10:50:58;;;;;;;12.30;2.00;;;;;;;11.09;100.00;96287.25;2083801;28;20545;-63
2024/04/04 10:53:08;;;;;;;9.98;2.25;;;;;;;11.04;100.00;96288.44;2092646;27;20569;-65
2024/04/04 10:55:20;;;;;;;8.85;2.03;;;;;;;11.03;100.00;96282.34;2105337;27;20571;-62
2024/04/04 10:57:36;;;;;;;14.18;1.90;;;;;;;11.02;100.00;96278.06;2085574;28;20560;-62
2024/04/04 10:59:54;;;;;;;9.02;1.50;;;;;;;10.97;98.52;96269.63;2084636;28;20552;-65
2024/04/04 11:02:19;;;;;;;8.30;1.23;;;;;;;10.98;99.00;96276.50;2076876;28;21076;-63
2024/04/04 11:04:43;;;;;;;5.63;1.60;;;;;;;11.02;100.00;96269.38;2085928;28;20552;-62
2024/04/04 11:05:44;;;;;;;8.82;1.63;;;;;;;11.02;100.00;96279.81;2074206;28;20637;-63
2024/04/04 11:06:47;;;;;;;7.23;1.77;;;;;;;11.06;97.96;96273.53;2060908;28;20217;-64
2024/04/04 11:09:00;;;;;;;9.77;1.20;;;;;;;11.10;99.73;96293.34;2084720;28;20570;-62
2024/04/04 11:10:00;;;;;;;15.48;1.70;;;;;;;11.10;98.73;96282.88;2079204;28;20253;-62
2024/04/04 11:12:09;;;;;;;6.97;1.45;;;;;;;11.09;99.00;96283.81;2080967;28;20552;-62
2024/04/04 11:14:20;;;;;;;5.38;1.30;;;;;;;11.11;100.00;96288.03;2084546;28;20565;-64
2024/04/04 11:16:28;;;;;;;6.85;1.20;;;;;;;11.04;98.86;96298.88;2082950;28;20549;-64
2024/04/04 11:17:29;;;;;;;7.53;1.70;;;;;;;11.04;99.81;96285.81;2081971;28;20206;-64
2024/04/04 11:18:30;;;;;;;5.90;1.77;;;;;;;11.04;98.23;96273.59;2076157;28;20397;-63
2024/04/04 11:19:30;;;;;;;7.87;1.73;;;;;;;11.11;99.26;96272.34;2076189;28;20209;-63
2024/04/04 11:20:32;;;;;;;13.57;2.20;;;;;;;11.15;98.55;96278.25;2075749;28;20215;-64
2024/04/04 11:21:32;;;;;;;5.85;1.60;;;;;;;11.27;99.43;96285.47;2077887;28;20201;-63
2024/04/04 11:22:35;;;;;;;8.70;1.60;;;;;;;11.32;98.95;96281.75;2078681;28;20211;-64
2024/04/04 11:23:36;;;;;;;7.35;1.65;;;;;;;11.36;99.27;96272.81;2075212;28;20584;-64
2024/04/04 11:24:36;;;;;;;8.55;2.03;;;;;;;11.37;100.00;96274.50;2067721;28;20197;-64
2024/04/04 11:25:37;;;;;;;6.13;1.70;;;;;;;11.36;100.00;96278.88;2067778;28;20632;-64
2024/04/04 11:26:37;;;;;;;8.33;2.00;;;;;;;11.34;100.00;96275.50;2074573;28;20233;-64
2024/04/04 11:27:39;;;;;;;7.33;2.00;;;;;;;11.31;99.28;96278.28;2071934;28;20209;-64
2024/04/04 11:29:56;;;;;;;7.75;1.30;;;;;;;11.19;99.79;96277.16;2116429;27;21064;-64
2024/04/04 11:39:24;;;;;;;8.20;1.90;;;;;;;11.02;99.24;96287.66;2102292;27;20895;-64
2024/04/04 11:40:24;;;;;;;5.47;1.27;;;;;;;11.05;98.50;96293.56;2097543;28;20199;-64
2024/04/04 11:41:25;;;;;;;16.30;1.50;;;;;;;11.14;98.55;96300.09;2089964;28;20208;-64
2024/04/04 11:42:26;;;;;;;7.30;2.00;;;;;;;11.19;97.73;96302.47;2071095;28;20214;-64
2024/04/04 11:43:28;;;;;;;7.13;1.60;;;;;;;11.32;97.78;96305.28;2070509;28;20211;-64
2024/04/04 11:44:29;;;;;;;6.50;1.40;;;;;;;11.41;97.10;96316.09;2068140;28;20223;-65
2024/04/04 11:45:32;;;;;;;6.20;1.20;;;;;;;11.60;98.25;96296.78;2066514;28;20203;-64
2024/04/04 11:46:33;;;;;;;3.20;1.20;;;;;;;11.75;95.34;96308.19;2067065;28;20223;-64
2024/04/04 11:47:33;;;;;;;8.40;1.27;;;;;;;12.00;94.10;96292.00;2067342;28;20203;-64
2024/04/04 11:48:34;;;;;;;7.80;1.77;;;;;;;12.40;93.07;96301.97;2066573;28;20216;-65
2024/04/04 11:49:37;;;;;;;12.77;1.47;;;;;;;12.63;90.38;96298.03;2071612;28;20203;-65
2024/04/04 11:50:38;;;;;;;7.68;1.20;;;;;;;12.73;90.48;96299.19;2066424;28;20213;-65
2024/04/04 11:51:38;;;;;;;5.17;1.30;;;;;;;13.01;89.90;96308.00;2066914;28;20224;-66
2024/04/04 11:52:39;;;;;;;12.53;1.70;;;;;;;13.14;91.03;96297.66;2082516;28;20581;-65
2024/04/04 11:53:39;;;;;;;5.63;1.20;;;;;;;12.85;89.44;96308.09;2075778;28;20831;-65
2024/04/04 11:54:40;;;;;;;6.73;1.30;;;;;;;12.67;90.54;96301.31;2074858;28;20646;-65
2024/04/04 11:55:41;;;;;;;13.23;1.13;;;;;;;12.59;91.69;96317.47;2068248;28;21030;-66
2024/04/04 11:56:43;;;;;;;13.02;1.65;;;;;;;12.32;89.69;96314.69;2074818;28;20216;-66
2024/04/04 11:57:44;;;;;;;9.13;1.48;;;;;;;12.35;91.85;96312.72;2082499;28;20260;-65
2024/04/04 11:58:44;;;;;;;7.00;1.53;;;;;;;12.23;91.20;96324.72;2072606;28;20661;-65
2024/04/04 11:59:45;;;;;;;4.20;1.10;;;;;;;12.13;90.09;96320.94;2072940;28;20228;-66
2024/04/04 12:00:45;;;;;;;4.20;1.00;;;;;;;12.08;91.59;96309.91;2082082;28;20207;-66
2024/04/04 12:01:46;;;;;;;7.30;1.23;;;;;;;12.04;92.22;96311.00;2076075;28;20207;-65
2024/04/04 12:02:47;;;;;;;3.37;1.43;;;;;;;12.03;93.02;96320.59;2074411;28;20239;-65
2024/04/04 12:03:48;;;;;;;5.43;1.45;;;;;;;12.05;94.61;96312.69;2074876;28;20606;-66
2024/04/04 12:04:48;;;;;;;6.90;1.20;;;;;;;11.93;92.64;96301.94;2082510;28;20217;-66
2024/04/04 12:05:49;;;;;;;8.27;1.53;;;;;;;11.95;92.06;96314.06;2072942;28;20619;-64
2024/04/04 12:06:50;;;;;;;5.73;1.07;;;;;;;12.02;93.36;96316.31;2071540;28;20431;-65
2024/04/04 12:07:51;;;;;;;2.58;0.77;;;;;;;11.99;92.16;96292.94;2074697;28;20226;-65
2024/04/04 12:08:51;;;;;;;6.23;1.10;;;;;;;11.94;91.23;96315.88;2076771;28;20212;-65
2024/04/04 12:09:52;;;;;;;2.60;0.93;;;;;;;11.93;92.55;96325.50;2082918;28;20459;-65
2024/04/04 12:10:52;;;;;;;6.37;1.10;;;;;;;12.02;93.37;96313.69;2075034;28;20270;-65
2024/04/04 12:11:55;;;;;;;5.77;1.20;;;;;;;12.05;93.66;96316.16;2073851;28;20621;-65
2024/04/04 12:12:56;;;;;;;5.18;1.08;;;;;;;11.98;91.39;96319.19;2074109;28;20213;-65
2024/04/04 12:13:59;;;;;;;8.73;1.20;;;;;;;11.99;91.64;96319.09;2073881;28;20222;-64
2024/04/04 12:14:59;;;;;;;18.75;1.98;;;;;;;12.03;93.33;96318.00;2074983;28;20197;-65
2024/04/04 12:16:00;;;;;;;3.33;0.90;;;;;;;11.98;93.14;96306.94;2078169;28;20274;-66
2024/04/04 12:17:02;;;;;;;7.80;1.30;;;;;;;11.97;94.16;96317.50;2077808;28;20500;-66
2024/04/04 12:19:27;;;;;;;4.38;1.38;;;;;;;11.93;94.79;96316.78;2076890;28;20229;-67
2024/04/04 12:20:28;;;;;;;2.80;1.00;;;;;;;11.86;93.12;96307.56;2075368;28;20214;-66
2024/04/04 12:21:28;;;;;;;6.13;1.27;;;;;;;11.87;95.04;96312.75;2075628;28;20648;-66
2024/04/04 12:22:29;;;;;;;2.43;0.93;;;;;;;11.82;92.00;96312.16;2080258;28;20551;-65
2024/04/04 12:23:30;;;;;;;9.30;1.43;;;;;;;11.84;94.61;96312.91;2073129;28;20211;-66
2024/04/04 12:24:31;;;;;;;9.90;1.25;;;;;;;11.77;94.11;96322.03;2082073;28;20437;-66
2024/04/04 12:25:32;;;;;;;10.23;1.00;;;;;;;11.73;92.97;96308.28;2074171;28;20212;-65
2024/04/04 12:26:33;;;;;;;5.50;0.93;;;;;;;11.71;92.81;96304.88;2073294;28;20284;-65
2024/04/04 12:27:34;;;;;;;8.82;1.33;;;;;;;11.70;93.75;96318.06;2076099;28;20628;-66
2024/04/04 12:28:34;;;;;;;6.90;1.60;;;;;;;11.58;92.12;96294.25;2075341;28;20563;-65
2024/04/04 12:29:35;;;;;;;4.43;0.80;;;;;;;11.64;93.62;96297.47;2075430;28;20215;-64
2024/04/04 12:30:35;;;;;;;6.43;0.93;;;;;;;11.56;93.42;96275.19;2083063;28;20251;-65
2024/04/04 12:31:36;;;;;;;7.07;1.40;;;;;;;11.62;94.92;96283.63;2072562;28;20211;-65
2024/04/04 12:32:36;;;;;;;4.23;1.00;;;;;;;11.71;95.35;96280.53;2082149;28;20239;-65
2024/04/04 12:33:37;;;;;;;4.10;1.47;;;;;;;11.76;95.58;96274.09;2074136;28;20714;-65
2024/04/04 12:34:38;;;;;;;8.83;1.20;;;;;;;11.78;92.14;96294.91;2071286;28;20450;-64
2024/04/04 12:35:38;;;;;;;6.00;1.63;;;;;;;11.98;93.61;96277.31;2075858;28;21063;-65
2024/04/04 12:36:39;;;;;;;5.73;1.20;;;;;;;12.00;93.15;96275.44;2068035;28;20216;-65
2024/04/04 12:37:39;;;;;;;2.40;1.00;;;;;;;12.10;92.87;96281.88;2073799;28;20764;-65
2024/04/04 12:38:40;;;;;;;4.17;0.80;;;;;;;11.97;90.74;96281.69;2065702;28;20969;-65
2024/04/04 12:39:40;;;;;;;3.97;0.90;;;;;;;12.03;91.81;96283.97;2063676;28;20381;-65
2024/04/04 12:40:41;;;;;;;3.63;0.80;;;;;;;12.06;92.09;96282.94;2072918;28;20299;-65
2024/04/04 12:41:41;;;;;;;5.07;1.07;;;;;;;12.19;92.64;96275.25;2069345;28;20201;-65
2024/04/04 12:42:42;;;;;;;2.20;0.70;;;;;;;12.09;89.64;96262.69;2073940;28;20683;-65
2024/04/04 12:43:45;;;;;;;6.20;1.00;;;;;;;12.08;89.88;96273.25;2070104;28;20361;-65
2024/04/04 12:44:46;;;;;;;9.35;1.10;;;;;;;12.08;90.63;96276.69;2070591;28;20223;-66
2024/04/04 12:45:47;;;;;;;3.28;1.05;;;;;;;12.11;89.95;96273.06;2075546;28;20208;-65
2024/04/04 12:46:48;;;;;;;2.50;0.80;;;;;;;12.12;89.22;96269.53;2076604;28;20551;-66
2024/04/04 12:47:48;;;;;;;4.03;0.93;;;;;;;12.11;88.86;96288.78;2073294;28;20212;-66
2024/04/04 12:48:57;;;;;;;3.40;1.10;;;;;;;12.18;88.31;96276.19;2075436;28;20228;-66
2024/04/04 12:49:58;;;;;;;2.85;0.88;;;;;;;12.17;87.60;96272.72;2078195;28;20211;-66
2024/04/04 12:50:59;;;;;;;2.53;0.80;;;;;;;12.11;87.53;96286.16;2069317;28;20212;-65
2024/04/04 12:52:01;;;;;;;7.32;1.25;;;;;;;12.31;88.15;96278.97;2068052;28;20219;-66
2024/04/04 12:53:01;;;;;;;4.00;0.70;;;;;;;12.30;87.34;96282.50;2066706;28;20582;-65
2024/04/04 12:54:03;;;;;;;2.07;0.80;;;;;;;12.30;87.07;96278.09;2067569;28;20214;-66
2024/04/04 12:55:05;;;;;;;4.90;0.80;;;;;;;12.28;86.58;96277.34;2068115;28;20557;-66
2024/04/04 12:56:05;;;;;;;4.90;0.80;;;;;;;12.30;85.34;96285.13;2067805;28;20223;-66
2024/04/04 12:57:06;;;;;;;2.70;1.00;;;;;;;12.43;86.38;96273.03;2067257;28;20232;-65
2024/04/04 12:58:06;;;;;;;2.70;0.80;;;;;;;12.57;86.37;96273.03;2068793;28;20487;-66
2024/04/04 12:59:07;;;;;;;3.83;1.13;;;;;;;12.58;85.17;96259.03;2066822;28;20612;-65
2024/04/04 13:00:09;;;;;;;5.07;0.90;;;;;;;12.54;85.18;96260.16;2068517;28;20205;-65
2024/04/04 13:01:10;;;;;;;2.15;0.60;;;;;;;12.51;83.85;96275.19;2070742;28;20859;-66
2024/04/04 13:02:10;;;;;;;2.10;0.80;;;;;;;12.48;83.46;96252.66;2072177;28;20244;-66
2024/04/04 13:03:11;;;;;;;3.27;0.90;;;;;;;12.36;83.24;96272.50;2068490;28;20957;-67
2024/04/04 13:04:11;;;;;;;5.67;1.63;;;;;;;12.40;84.87;96257.47;2071578;28;20212;-66
2024/04/04 13:05:12;;;;;;;5.50;1.00;;;;;;;12.49;85.39;96251.69;2066477;28;20268;-66
2024/04/04 13:06:13;;;;;;;3.00;0.90;;;;;;;12.48;84.62;96254.41;2066712;28;20206;-66
2024/04/04 13:07:14;;;;;;;5.53;0.90;;;;;;;12.44;84.26;96250.28;2066923;28;20221;-65
2024/04/04 13:08:14;;;;;;;4.23;1.57;;;;;;;12.37;84.37;96249.81;2069148;28;20286;-66
2024/04/04 13:09:15;;;;;;;4.50;0.90;;;;;;;12.42;84.08;96253.00;2068015;28;20699;-67
2024/04/04 13:10:15;;;;;;;5.77;1.90;;;;;;;12.64;84.30;96244.72;2066721;28;20217;-66
2024/04/04 13:11:18;;;;;;;7.00;0.90;;;;;;;12.56;84.17;96232.06;2069094;28;20194;-66
2024/04/04 13:12:18;;;;;;;2.72;0.90;;;;;;;12.47;82.70;96235.25;2067433;28;20250;-66
2024/04/04 13:13:20;;;;;;;2.80;0.90;;;;;;;12.45;83.73;96271.13;2068532;28;20632;-65
2024/04/04 13:14:20;;;;;;;6.75;2.38;;;;;;;12.37;84.95;96239.34;2070007;28;20215;-65
2024/04/04 13:15:21;;;;;;;2.83;1.13;;;;;;;12.33;85.08;96229.94;2070096;28;20235;-65
2024/04/04 13:16:22;;;;;;;5.10;0.90;;;;;;;12.21;84.73;96247.22;2068397;28;20216;-64
2024/04/04 13:17:23;;;;;;;13.43;4.03;;;;;;;12.40;87.57;96229.53;2070236;28;20726;-64
2024/04/04 13:18:23;;;;;;;2.70;1.40;;;;;;;12.48;86.47;96233.44;2072556;28;20216;-64
2024/04/04 13:19:24;;;;;;;4.53;1.20;;;;;;;12.66;85.52;96237.63;2067490;28;20486;-65
2024/04/04 13:20:24;;;;;;;3.33;1.10;;;;;;;12.83;85.24;96235.75;2068320;28;20362;-65
2024/04/04 13:21:25;;;;;;;2.90;1.00;;;;;;;13.04;84.32;96225.75;2072425;28;20235;-65
2024/04/04 13:22:26;;;;;;;4.80;1.00;;;;;;;12.96;83.48;96222.75;2075433;28;20867;-65
2024/04/04 13:23:26;;;;;;;2.83;0.67;;;;;;;12.87;83.98;96260.84;2069134;28;20220;-65
2024/04/04 13:24:27;;;;;;;2.77;1.00;;;;;;;12.74;84.60;96222.25;2073793;28;20447;-65
2024/04/04 13:25:27;;;;;;;2.77;0.93;;;;;;;12.55;84.61;96227.75;2073319;28;20270;-66
2024/04/04 13:26:28;;;;;;;5.73;1.37;;;;;;;12.40;84.78;96231.28;2061462;28;21037;-66
2024/04/04 13:27:29;;;;;;;4.13;1.10;;;;;;;12.28;85.88;96222.38;2065907;28;20233;-66
2024/04/04 13:28:29;;;;;;;5.10;1.13;;;;;;;12.24;86.19;96228.75;2067569;28;20208;-66
2024/04/04 13:29:30;;;;;;;4.27;0.87;;;;;;;12.17;86.15;96243.09;2068294;28;20205;-65
2024/04/04 13:30:31;;;;;;;2.60;0.80;;;;;;;12.09;87.14;96247.00;2067288;28;20234;-65
2024/04/04 13:31:31;;;;;;;3.10;0.98;;;;;;;12.07;87.84;96250.63;2072120;28;20244;-66
2024/04/04 13:32:32;;;;;;;3.63;0.70;;;;;;;12.01;87.02;96257.06;2074014;28;20283;-65
2024/04/04 13:33:33;;;;;;;4.30;1.00;;;;;;;12.01;88.65;96264.06;2072405;28;20202;-66
2024/04/04 13:34:34;;;;;;;7.25;0.90;;;;;;;11.96;88.24;96264.34;2074857;28;20243;-64
2024/04/04 13:35:34;;;;;;;2.40;0.90;;;;;;;11.96;89.57;96258.25;2068189;28;20211;-65
2024/04/04 13:36:35;;;;;;;3.00;0.97;;;;;;;12.03;90.52;96256.97;2068847;28;20632;-65
2024/04/04 13:37:35;;;;;;;2.63;0.90;;;;;;;12.04;90.34;96263.91;2067416;28;20547;-65
2024/04/04 13:38:36;;;;;;;5.80;1.00;;;;;;;12.04;90.39;96256.03;2067540;28;20232;-65
2024/04/04 13:39:37;;;;;;;5.43;1.33;;;;;;;11.97;89.40;96258.16;2076133;28;20212;-66
2024/04/04 13:40:37;;;;;;;3.45;1.10;;;;;;;11.95;88.68;96253.91;2075625;28;20208;-66
2024/04/04 13:41:39;;;;;;;4.87;2.40;;;;;;;11.92;90.13;96242.69;2075267;28;20315;-66
2024/04/04 13:42:39;;;;;;;8.03;6.10;;;;;;;11.90;89.90;96248.94;2067258;28;20450;-66
2024/04/04 13:43:42;;;;;;;6.30;3.30;;;;;;;11.79;90.18;96240.84;2066661;28;20527;-65
2024/04/04 13:44:42;;;;;;;4.50;1.40;;;;;;;11.73;90.74;96252.47;2068284;28;20216;-66
2024/04/04 13:45:44;;;;;;;4.13;1.03;;;;;;;11.69;91.38;96248.38;2068223;28;20209;-65
2024/04/04 13:46:45;;;;;;;5.15;1.00;;;;;;;11.65;91.00;96234.59;2068423;28;20222;-65
2024/04/04 13:47:46;;;;;;;5.90;1.00;;;;;;;11.80;91.57;96242.53;2074355;28;20669;-67
2024/04/04 13:48:49;;;;;;;2.23;0.87;;;;;;;11.96;90.07;96235.56;2070255;28;20216;-64
2024/04/04 13:49:50;;;;;;;2.42;0.80;;;;;;;12.08;90.96;96228.75;2068989;28;20202;-63
2024/04/04 13:50:50;;;;;;;3.28;0.90;;;;;;;12.21;90.01;96255.94;2069211;28;20208;-63
2024/04/04 13:51:51;;;;;;;5.20;1.77;;;;;;;12.63;87.54;96245.63;2068577;28;20560;-63
2024/04/04 13:52:51;;;;;;;6.50;1.27;;;;;;;12.91;87.13;96230.88;2066967;28;20249;-63
2024/04/04 13:53:52;;;;;;;4.20;1.00;;;;;;;12.63;87.53;96243.00;2078699;28;20227;-63
2024/04/04 13:54:52;;;;;;;3.40;1.20;;;;;;;12.48;89.49;96236.06;2059557;28;20206;-65
2024/04/04 13:55:53;;;;;;;4.80;1.10;;;;;;;12.30;87.92;96249.28;2068942;28;20202;-65
2024/04/04 13:56:53;;;;;;;2.53;0.93;;;;;;;12.61;88.28;96262.38;2067345;28;20232;-65
2024/04/04 13:57:54;;;;;;;2.43;0.90;;;;;;;12.71;86.31;96272.22;2068403;28;20205;-64
2024/04/04 13:58:54;;;;;;;2.33;0.90;;;;;;;12.80;87.14;96264.75;2068623;28;20222;-66
2024/04/04 13:59:55;;;;;;;1.40;0.73;;;;;;;12.54;89.39;96259.28;2068340;28;20283;-64
2024/04/04 14:00:56;;;;;;;1.27;0.73;;;;;;;12.37;88.13;96260.28;2066279;28;20431;-64
2024/04/04 14:02:06;;;;;;;2.43;0.80;;;;;;;12.20;89.30;96258.63;2075809;28;20735;-64
2024/04/04 14:03:07;;;;;;;3.67;0.82;;;;;;;12.12;89.40;96253.00;2069131;28;20275;-64
2024/04/04 14:04:07;;;;;;;5.03;1.10;;;;;;;12.05;89.38;96260.34;2065235;28;20221;-66
2024/04/04 14:05:08;;;;;;;3.47;0.90;;;;;;;11.93;89.11;96257.47;2073552;28;20299;-64
2024/04/04 14:06:09;;;;;;;6.60;0.97;;;;;;;11.86;89.02;96252.63;2066040;28;20561;-63
2024/04/04 14:07:09;;;;;;;4.97;1.03;;;;;;;11.86;89.80;96243.03;2078140;28;20232;-64
2024/04/04 14:08:10;;;;;;;4.90;1.53;;;;;;;11.76;88.92;96250.53;2076909;28;20219;-63
2024/04/04 14:09:10;;;;;;;5.53;1.80;;;;;;;11.74;89.58;96246.31;2076076;28;20205;-64
2024/04/04 14:10:11;;;;;;;5.00;0.90;;;;;;;11.69;88.90;96254.41;2067103;28;20212;-63
2024/04/04 14:11:12;;;;;;;4.55;1.15;;;;;;;11.81;89.14;96252.91;2071655;28;20789;-63
2024/04/04 14:12:13;;;;;;;1.87;0.90;;;;;;;11.84;88.06;96242.25;2071167;28;20245;-64
2024/04/04 14:13:14;;;;;;;3.55;0.80;;;;;;;11.83;88.99;96258.88;2076491;28;21004;-65
2024/04/04 14:14:16;;;;;;;4.67;1.10;;;;;;;11.83;89.50;96245.81;2066056;28;20244;-64
2024/04/04 14:15:17;;;;;;;3.40;1.00;;;;;;;11.84;88.77;96249.28;2060041;28;20448;-64
2024/04/04 14:16:17;;;;;;;4.70;0.80;;;;;;;11.99;89.11;96255.47;2060178;28;20204;-64
2024/04/04 14:17:18;;;;;;;2.80;0.90;;;;;;;11.98;88.80;96244.13;2074956;28;20698;-64
2024/04/04 14:18:19;;;;;;;3.43;1.07;;;;;;;12.04;87.58;96241.19;2071323;28;20452;-65
2024/04/04 14:19:19;;;;;;;2.05;0.70;;;;;;;12.32;88.33;96242.22;2063649;28;20232;-64
2024/04/04 14:20:20;;;;;;;2.57;0.70;;;;;;;12.76;86.19;96244.91;2076085;28;20205;-64
2024/04/04 14:21:23;;;;;;;2.05;1.02;;;;;;;12.64;85.77;96239.47;2067966;28;20216;-65
2024/04/04 14:22:23;;;;;;;5.40;0.98;;;;;;;12.85;86.38;96244.34;2065921;28;20669;-65
2024/04/04 14:23:24;;;;;;;4.47;0.77;;;;;;;13.03;84.48;96234.56;2075381;28;20210;-64
2024/04/04 14:24:24;;;;;;;2.33;0.80;;;;;;;13.19;83.23;96232.69;2067277;28;20205;-64
2024/04/04 14:25:25;;;;;;;3.00;1.00;;;;;;;13.43;84.02;96245.22;2068657;28;20222;-64
2024/04/04 14:26:27;;;;;;;7.43;0.90;;;;;;;13.23;82.91;96257.75;2067352;28;20217;-64
2024/04/04 14:27:27;;;;;;;2.55;0.85;;;;;;;13.39;84.00;96249.84;2066441;28;20225;-65
2024/04/04 14:28:28;;;;;;;1.63;0.70;;;;;;;13.57;82.91;96246.16;2066524;28;20217;-65
2024/04/04 14:29:30;;;;;;;5.60;1.13;;;;;;;13.66;81.93;96242.94;2073926;28;20699;-65
2024/04/04 14:30:30;;;;;;;4.25;0.90;;;;;;;13.71;82.32;96240.84;2068400;28;20252;-65
2024/04/04 14:31:31;;;;;;;2.00;0.80;;;;;;;13.67;81.54;96232.31;2069061;28;20205;-65
2024/04/04 14:32:35;;;;;;;6.33;1.03;;;;;;;13.21;83.10;96227.34;2062327;28;20471;-64
2024/04/04 14:33:36;;;;;;;3.17;0.77;;;;;;;12.99;83.85;96231.28;2066271;28;20206;-64
2024/04/04 14:34:37;;;;;;;3.90;0.80;;;;;;;12.86;82.78;96239.03;2066935;28;20265;-64
2024/04/04 14:35:38;;;;;;;4.30;1.00;;;;;;;13.10;83.50;96229.78;2067174;28;20214;-65
2024/04/04 14:36:38;;;;;;;2.10;0.80;;;;;;;13.29;82.80;96232.09;2055510;28;20214;-65
2024/04/04 14:37:39;;;;;;;3.63;1.00;;;;;;;13.45;81.81;96250.38;2065834;28;20616;-65
2024/04/04 14:38:39;;;;;;;2.30;0.80;;;;;;;13.42;80.07;96235.69;2061406;28;20216;-65